Hg 306 Tobis — OUPS — position and weather

sailwx.info

Track history (hours):
 
Tides and Currents Weather Stations Pressure Air Temp Water Temp Dewpoint Dewpoint Depression Visibility Wind Speed Wind Dir Waves Ship Positions

Hg 306 Tobis

Last reported at 2017-Mar-22 20:10 UTC. Time now 2017-Mar-23 02:20 UTC.
Position N 57°36' E 009°58'.

Length 40 m; draft 6.4 m.

Type: Fishing. MMSI: 219013001.

Date/timePositionNaut miles runAvg speedWind from/ knotsBaromVisibWave heightAir tempDewpointWater temp
2017-Mar-22 20:10N 57°36' E 009°58'  
2017-Mar-14 17:32N 58°56' E 004°54'8 8.3
2017-Mar-14 16:33N 58°50' E 005°04'9 8.8
2017-Mar-14 15:33N 58°44' E 005°16'9 9.1
2017-Mar-14 14:33N 58°37' E 005°28'11 8.4
2017-Mar-14 13:14N 58°29' E 005°42'6 8.5
2017-Mar-14 12:32N 58°24' E 005°50'11 9.1
2017-Mar-14 11:21N 58°16' E 006°03'7 9.1
2017-Mar-14 10:33N 58°11' E 006°13'9 8.7
2017-Mar-14 09:33N 58°05' E 006°25'9 9.3
2017-Mar-14 08:34N 57°59' E 006°38'9 9.2
2017-Mar-14 07:32N 57°54' E 006°54'100 3.2
2017-Mar-13 00:33N 57°36' E 009°59'0 0.0
2017-Mar-12 23:33N 57°36' E 009°59'  
Track history (hours):
 
Tides and Currents Weather Stations Pressure Air Temp Water Temp Dewpoint Dewpoint Depression Visibility Wind Speed Wind Dir Waves Ship Positions

Hg 306 Tobis

Last reported at 2017-Mar-22 20:10 UTC. Time now 2017-Mar-23 02:20 UTC.
Position N 57°36' E 009°58'.

Length 40 m; draft 6.4 m.

Type: Fishing. MMSI: 219013001.

Date/timePositionNaut miles runAvg speedWind from/ knotsBaromVisibWave heightAir tempDewpointWater temp
2017-Mar-22 20:10N 57°36' E 009°58'  
2017-Mar-14 17:32N 58°56' E 004°54'8 8.3
2017-Mar-14 16:33N 58°50' E 005°04'9 8.8
2017-Mar-14 15:33N 58°44' E 005°16'9 9.1
2017-Mar-14 14:33N 58°37' E 005°28'11 8.4
2017-Mar-14 13:14N 58°29' E 005°42'6 8.5
2017-Mar-14 12:32N 58°24' E 005°50'11 9.1
2017-Mar-14 11:21N 58°16' E 006°03'7 9.1
2017-Mar-14 10:33N 58°11' E 006°13'9 8.7
2017-Mar-14 09:33N 58°05' E 006°25'9 9.3
2017-Mar-14 08:34N 57°59' E 006°38'9 9.2
2017-Mar-14 07:32N 57°54' E 006°54'100 3.2
2017-Mar-13 00:33N 57°36' E 009°59'0 0.0
2017-Mar-12 23:33N 57°36' E 009°59'  

Dump ship's entire track history